createdAt,value
2018-08-16T00:01:11.862Z,16.80
2018-08-16T00:03:39.894Z,16.70
2018-08-16T00:06:07.909Z,16.70
2018-08-16T00:08:35.958Z,16.70
2018-08-16T00:11:03.914Z,16.70
2018-08-16T00:13:31.956Z,16.60
2018-08-16T00:16:00.003Z,16.60
2018-08-16T00:18:28.007Z,16.60
2018-08-16T00:20:55.978Z,16.50
2018-08-16T00:23:23.947Z,16.50
2018-08-16T00:25:52.187Z,16.50
2018-08-16T00:28:20.274Z,16.50
2018-08-16T00:30:48.150Z,16.40
2018-08-16T00:33:16.189Z,16.40
2018-08-16T00:35:44.280Z,16.40
2018-08-16T00:38:12.358Z,16.40
2018-08-16T00:40:40.339Z,16.50
2018-08-16T00:43:08.335Z,16.40
2018-08-16T00:45:36.475Z,16.40
2018-08-16T00:48:04.699Z,16.40
2018-08-16T00:50:32.759Z,16.40
2018-08-16T00:53:00.740Z,16.30
2018-08-16T00:55:29.078Z,16.40
2018-08-16T00:57:57.352Z,16.30
2018-08-16T01:00:25.397Z,16.20
2018-08-16T01:02:53.393Z,16.20
2018-08-16T01:05:21.437Z,16.20
2018-08-16T01:07:49.417Z,16.10
2018-08-16T01:10:17.441Z,16.10
2018-08-16T01:12:45.440Z,16.10
2018-08-16T01:15:15.208Z,16.00
2018-08-16T01:17:43.284Z,16.00
2018-08-16T01:20:11.744Z,16.00
2018-08-16T01:22:39.828Z,16.00
2018-08-16T01:25:09.582Z,16.00
2018-08-16T01:27:37.650Z,16.00
2018-08-16T01:30:06.800Z,16.00
2018-08-16T01:32:34.960Z,16.00
2018-08-16T01:35:03.193Z,16.00
2018-08-16T01:37:31.162Z,16.00
2018-08-16T01:39:59.182Z,16.00
2018-08-16T01:42:27.645Z,15.90
2018-08-16T01:44:55.743Z,15.90
2018-08-16T01:47:23.720Z,15.90
2018-08-16T01:49:52.240Z,15.90
2018-08-16T01:52:20.207Z,15.90
2018-08-16T01:54:48.150Z,15.90
2018-08-16T01:57:16.281Z,15.90
2018-08-16T01:59:44.425Z,15.80
2018-08-16T02:02:12.460Z,15.80
2018-08-16T02:04:40.395Z,15.70
2018-08-16T02:07:08.487Z,15.80
2018-08-16T02:09:36.543Z,15.70
2018-08-16T02:12:04.504Z,15.70
2018-08-16T02:14:32.575Z,15.70
2018-08-16T02:17:00.680Z,15.70
2018-08-16T02:19:28.620Z,15.70
2018-08-16T02:21:56.670Z,15.70
2018-08-16T02:24:24.642Z,15.70
2018-08-16T02:26:52.614Z,15.70
2018-08-16T02:29:20.538Z,15.70
2018-08-16T02:31:48.573Z,15.70
2018-08-16T02:34:16.658Z,15.70
2018-08-16T02:36:44.799Z,15.70
2018-08-16T02:39:12.808Z,15.60
2018-08-16T02:41:40.883Z,15.60
2018-08-16T02:44:09.154Z,15.60
2018-08-16T02:46:37.194Z,15.50
2018-08-16T02:49:05.315Z,15.50
2018-08-16T02:51:33.525Z,15.50
2018-08-16T02:54:01.781Z,15.50
2018-08-16T02:56:29.882Z,15.50
2018-08-16T02:58:58.108Z,15.50
2018-08-16T03:01:26.105Z,15.50
2018-08-16T03:03:54.498Z,15.50
2018-08-16T03:06:22.509Z,15.40
2018-08-16T03:08:51.303Z,15.50
2018-08-16T03:11:19.239Z,15.50
2018-08-16T03:13:47.466Z,15.50
2018-08-16T03:16:15.498Z,15.50
2018-08-16T03:18:43.395Z,15.50
2018-08-16T03:21:11.413Z,15.50
2018-08-16T03:23:39.495Z,15.50
2018-08-16T03:26:07.623Z,15.50
2018-08-16T03:28:35.627Z,15.60
2018-08-16T03:31:03.764Z,15.60
2018-08-16T03:33:31.811Z,15.60
2018-08-16T03:35:59.798Z,15.60
2018-08-16T03:38:27.754Z,15.60
2018-08-16T03:40:55.824Z,15.60
2018-08-16T03:43:24.752Z,15.60
2018-08-16T03:45:52.842Z,15.70
2018-08-16T03:48:20.863Z,15.70
2018-08-16T03:50:48.899Z,15.70
2018-08-16T03:53:16.963Z,15.70
2018-08-16T03:55:44.941Z,15.70
2018-08-16T03:58:13.285Z,15.70
2018-08-16T04:00:41.539Z,15.70
2018-08-16T04:03:09.556Z,15.70
2018-08-16T04:05:37.513Z,15.80
2018-08-16T04:08:05.655Z,15.80
2018-08-16T04:10:33.973Z,15.80
2018-08-16T04:13:01.986Z,15.70
2018-08-16T04:15:30.059Z,15.70
2018-08-16T04:17:58.087Z,15.70
2018-08-16T04:20:26.015Z,15.80
2018-08-16T04:22:54.066Z,15.80
2018-08-16T04:25:22.100Z,15.80
2018-08-16T04:27:50.086Z,15.80
2018-08-16T04:30:18.048Z,15.90
2018-08-16T04:32:46.023Z,15.90
2018-08-16T04:35:14.271Z,15.90
2018-08-16T04:37:42.133Z,16.00
2018-08-16T04:40:10.116Z,16.00
2018-08-16T04:42:38.042Z,16.10
2018-08-16T04:45:07.360Z,16.10
2018-08-16T04:47:35.347Z,16.20
2018-08-16T04:50:04.097Z,16.20
2018-08-16T04:52:32.203Z,16.30
2018-08-16T04:55:11.267Z,16.20
2018-08-16T04:57:47.872Z,16.30
2018-08-16T05:00:22.170Z,16.40
2018-08-16T05:02:55.485Z,16.40
2018-08-16T05:05:28.757Z,16.50
2018-08-16T05:07:58.933Z,16.50
2018-08-16T05:10:36.074Z,16.50
2018-08-16T05:13:06.876Z,16.60
2018-08-16T05:15:41.121Z,16.60
2018-08-16T05:21:10.691Z,16.70
2018-08-16T05:23:39.489Z,16.70
2018-08-16T05:26:07.387Z,16.80
2018-08-16T05:28:35.342Z,16.90
2018-08-16T05:31:03.390Z,16.90
2018-08-16T05:33:31.498Z,17.00
2018-08-16T05:35:59.474Z,17.00
2018-08-16T05:38:27.492Z,17.10
2018-08-16T05:40:55.521Z,17.20
2018-08-16T05:43:23.669Z,17.20
2018-08-16T05:45:51.553Z,17.40
2018-08-16T05:48:19.547Z,17.40
2018-08-16T05:50:47.685Z,17.50
2018-08-16T05:53:15.659Z,17.60
2018-08-16T05:55:43.668Z,17.60
2018-08-16T05:58:11.654Z,17.70
2018-08-16T06:00:39.631Z,17.70
2018-08-16T06:03:07.732Z,17.80
2018-08-16T06:05:35.917Z,17.90
2018-08-16T06:08:03.952Z,17.90
2018-08-16T06:10:32.058Z,18.00
2018-08-16T06:13:00.062Z,18.10
2018-08-16T06:15:28.021Z,18.20
2018-08-16T06:17:56.047Z,18.30
2018-08-16T06:20:24.110Z,18.40
2018-08-16T06:22:52.029Z,18.50
2018-08-16T06:25:20.026Z,18.50
2018-08-16T06:27:48.000Z,18.60
2018-08-16T06:30:17.367Z,18.70
2018-08-16T06:32:45.963Z,18.70
2018-08-16T06:35:14.116Z,18.90
2018-08-16T06:37:42.319Z,19.00
2018-08-16T06:40:15.864Z,19.10
2018-08-16T06:42:44.805Z,19.20
2018-08-16T06:45:12.896Z,19.50
2018-08-16T06:47:40.997Z,19.70
2018-08-16T06:50:09.399Z,19.80
2018-08-16T06:52:37.571Z,20.00
2018-08-16T06:55:06.562Z,20.20
2018-08-16T06:57:34.720Z,20.30
2018-08-16T07:00:02.790Z,20.50
2018-08-16T07:02:30.768Z,20.50
2018-08-16T07:04:58.911Z,20.70
2018-08-16T07:07:26.857Z,20.80
2018-08-16T07:09:54.866Z,21.00
2018-08-16T07:12:23.048Z,21.30
2018-08-16T07:14:51.138Z,21.50
2018-08-16T07:17:19.112Z,21.70
2018-08-16T07:19:47.150Z,21.90
2018-08-16T07:22:15.137Z,22.10
2018-08-16T07:24:43.044Z,22.10
2018-08-16T07:27:11.313Z,22.10
2018-08-16T07:29:39.311Z,22.20
2018-08-16T07:32:07.353Z,22.40
2018-08-16T07:34:35.394Z,22.60
2018-08-16T07:37:03.463Z,22.80
2018-08-16T07:39:31.455Z,23.00
2018-08-16T07:41:59.566Z,23.10
2018-08-16T07:44:27.473Z,23.20
2018-08-16T07:46:55.820Z,23.20
2018-08-16T07:49:23.917Z,23.40
2018-08-16T07:51:52.108Z,23.30
2018-08-16T07:54:20.192Z,23.40
2018-08-16T07:56:48.211Z,23.50
2018-08-16T07:59:16.424Z,23.40
2018-08-16T08:01:44.452Z,23.40
2018-08-16T08:04:12.630Z,23.60
2018-08-16T08:06:40.734Z,23.90
2018-08-16T08:09:09.723Z,24.00
2018-08-16T08:11:37.759Z,24.20
2018-08-16T08:14:06.509Z,24.30
2018-08-16T08:16:34.449Z,24.50
2018-08-16T08:19:02.446Z,25.00
2018-08-16T08:21:30.483Z,26.50
2018-08-16T08:23:58.565Z,28.10
2018-08-16T08:26:26.608Z,29.30
2018-08-16T08:28:54.750Z,29.70
2018-08-16T08:31:22.894Z,29.80
2018-08-16T08:33:50.915Z,29.70
2018-08-16T08:36:30.515Z,29.90
2018-08-16T08:38:58.812Z,30.50
2018-08-16T08:41:26.644Z,31.10
2018-08-16T08:44:08.951Z,30.90
2018-08-16T08:46:36.980Z,30.20
2018-08-16T08:49:05.354Z,29.90
2018-08-16T08:51:33.428Z,30.20
2018-08-16T08:54:44.096Z,30.20
2018-08-16T08:57:23.430Z,29.90
2018-08-16T08:59:51.370Z,30.20
2018-08-16T09:02:19.406Z,30.20
2018-08-16T09:04:47.509Z,29.80
2018-08-16T09:07:16.745Z,29.40
2018-08-16T09:10:56.536Z,29.10
2018-08-16T09:13:36.390Z,28.80
2018-08-16T09:16:09.347Z,28.40
2018-08-16T09:18:37.416Z,28.60
2018-08-16T09:21:05.892Z,29.10
2018-08-16T09:23:34.376Z,29.30
2018-08-16T09:26:06.833Z,29.80
2018-08-16T09:28:34.923Z,30.50
2018-08-16T09:31:14.054Z,31.70
2018-08-16T09:34:25.134Z,32.20
2018-08-16T09:36:53.182Z,31.80
2018-08-16T09:39:21.171Z,32.40
2018-08-16T09:41:49.227Z,33.40
2018-08-16T09:44:17.169Z,34.20
2018-08-16T09:47:10.097Z,33.50
2018-08-16T09:49:53.764Z,32.80
2018-08-16T09:52:22.158Z,33.00
2018-08-16T09:54:50.517Z,32.70
2018-08-16T09:57:18.647Z,32.60
2018-08-16T09:59:46.608Z,32.00
2018-08-16T10:02:16.114Z,31.60
2018-08-16T10:04:44.029Z,31.40
2018-08-16T10:07:11.936Z,32.10
2018-08-16T10:09:39.962Z,33.30
2018-08-16T10:12:08.016Z,34.20
2018-08-16T10:14:35.955Z,34.90
2018-08-16T10:17:03.959Z,35.50
2018-08-16T10:19:31.908Z,35.50
2018-08-16T10:22:00.086Z,35.20
2018-08-16T10:24:28.081Z,35.20
2018-08-16T10:26:56.052Z,35.30
2018-08-16T10:29:24.007Z,35.30
2018-08-16T10:31:51.959Z,35.40
2018-08-16T10:34:20.370Z,35.10
2018-08-16T10:36:48.405Z,35.10
2018-08-16T10:39:17.653Z,35.20
2018-08-16T10:41:45.912Z,35.20
2018-08-16T10:44:14.285Z,35.40
2018-08-16T10:46:42.093Z,36.20
2018-08-16T10:49:09.805Z,36.60
2018-08-16T10:51:37.537Z,36.80
2018-08-16T10:54:05.327Z,36.20
2018-08-16T10:56:33.187Z,36.10
2018-08-16T10:59:00.953Z,36.10
2018-08-16T11:01:28.828Z,36.40
2018-08-16T11:03:56.451Z,36.40
2018-08-16T11:06:24.159Z,36.80
2018-08-16T11:08:51.898Z,37.40
2018-08-16T11:11:20.503Z,37.50
2018-08-16T11:13:48.264Z,37.10
2018-08-16T11:16:15.994Z,36.60
2018-08-16T11:18:43.768Z,35.90
2018-08-16T11:21:11.765Z,34.80
2018-08-16T11:23:39.452Z,34.60
2018-08-16T11:26:07.260Z,34.80
2018-08-16T11:28:36.452Z,35.40
2018-08-16T11:31:04.559Z,35.10
2018-08-16T11:33:32.958Z,34.20
2018-08-16T11:36:00.697Z,33.90
2018-08-16T11:38:28.397Z,34.10
2018-08-16T11:40:56.313Z,34.40
2018-08-16T11:43:23.924Z,34.40
2018-08-16T11:45:52.037Z,33.50
2018-08-16T11:48:19.813Z,32.80
2018-08-16T11:50:47.775Z,32.60
2018-08-16T11:53:15.565Z,32.60
2018-08-16T11:55:43.353Z,32.40
2018-08-16T11:58:11.157Z,31.80
2018-08-16T12:00:38.877Z,30.90
2018-08-16T12:03:06.795Z,30.20
2018-08-16T12:05:34.537Z,29.70
2018-08-16T12:08:02.337Z,29.40
2018-08-16T12:10:30.003Z,29.30
2018-08-16T12:12:57.741Z,29.30
2018-08-16T12:15:25.400Z,29.10
2018-08-16T12:17:53.088Z,28.70
2018-08-16T12:20:20.811Z,28.50
2018-08-16T12:22:48.521Z,28.30
2018-08-16T12:25:16.183Z,28.30
2018-08-16T12:27:43.858Z,28.20
2018-08-16T12:30:11.711Z,28.20
2018-08-16T12:32:39.389Z,28.20
2018-08-16T12:35:07.744Z,28.30
2018-08-16T12:37:35.519Z,28.30
2018-08-16T12:40:04.105Z,28.30
2018-08-16T12:42:31.834Z,28.20
2018-08-16T12:44:59.499Z,28.00
2018-08-16T12:47:27.219Z,27.80
2018-08-16T12:49:54.805Z,27.70
2018-08-16T12:52:22.830Z,27.80
2018-08-16T12:54:51.027Z,27.90
2018-08-16T12:57:18.833Z,27.80
2018-08-16T12:59:46.525Z,27.90
2018-08-16T13:02:14.923Z,27.90
2018-08-16T13:04:42.651Z,28.10
2018-08-16T13:07:10.302Z,28.10
2018-08-16T13:09:38.104Z,27.90
2018-08-16T13:12:05.847Z,27.80
2018-08-16T13:14:33.496Z,27.70
2018-08-16T13:17:01.265Z,27.70
2018-08-16T13:19:29.095Z,27.90
2018-08-16T13:21:56.854Z,28.10
2018-08-16T13:24:24.805Z,28.10
2018-08-16T13:26:52.670Z,28.10
2018-08-16T13:29:20.350Z,28.20
2018-08-16T13:31:48.071Z,28.10
2018-08-16T13:34:15.700Z,28.20
2018-08-16T13:36:43.396Z,28.30
2018-08-16T13:39:12.611Z,28.30
2018-08-16T13:41:40.283Z,28.00
2018-08-16T13:44:08.170Z,27.70
2018-08-16T13:46:36.009Z,27.80
2018-08-16T13:49:03.768Z,27.90
2018-08-16T13:51:31.569Z,27.80
2018-08-16T13:53:59.309Z,27.70
2018-08-16T13:56:28.189Z,27.70
2018-08-16T13:58:55.875Z,27.80
2018-08-16T14:01:23.657Z,27.80
2018-08-16T14:03:51.337Z,27.90
2018-08-16T14:06:19.042Z,28.00
2018-08-16T14:08:46.709Z,28.10
2018-08-16T14:11:14.453Z,28.10
2018-08-16T14:13:42.265Z,28.10
2018-08-16T14:16:09.990Z,28.00
2018-08-16T14:18:37.899Z,27.80
2018-08-16T14:21:05.592Z,27.70
2018-08-16T14:23:33.526Z,27.80
2018-08-16T14:26:01.264Z,27.80
2018-08-16T14:28:29.229Z,27.90
2018-08-16T14:30:57.074Z,27.90
2018-08-16T14:33:24.835Z,27.90
2018-08-16T14:35:52.509Z,28.00
2018-08-16T14:38:20.283Z,28.00
2018-08-16T14:40:48.026Z,28.00
2018-08-16T14:43:15.711Z,28.10
2018-08-16T14:45:43.636Z,28.10
2018-08-16T14:48:11.589Z,28.10
2018-08-16T14:50:41.000Z,28.00
2018-08-16T14:53:08.932Z,27.90
2018-08-16T14:55:36.971Z,28.00
2018-08-16T14:58:05.810Z,28.00
2018-08-16T15:00:33.523Z,28.00
2018-08-16T15:03:01.565Z,28.10
2018-08-16T15:05:29.348Z,28.00
2018-08-16T15:07:57.000Z,27.90
2018-08-16T15:10:24.663Z,27.90
2018-08-16T15:12:52.409Z,27.90
2018-08-16T15:15:20.136Z,27.90
2018-08-16T15:17:47.811Z,27.90
2018-08-16T15:20:15.509Z,27.90
2018-08-16T15:22:43.296Z,27.90
2018-08-16T15:25:11.011Z,27.80
2018-08-16T15:27:38.708Z,27.80
2018-08-16T15:30:07.225Z,27.80
2018-08-16T15:32:34.959Z,27.80
2018-08-16T15:35:02.744Z,27.90
2018-08-16T15:37:30.490Z,27.90
2018-08-16T15:39:58.193Z,27.90
2018-08-16T15:42:25.910Z,27.80
2018-08-16T15:44:53.669Z,27.80
2018-08-16T15:47:21.328Z,27.80
2018-08-16T15:49:49.115Z,27.80
2018-08-16T15:52:16.800Z,27.70
2018-08-16T15:54:44.471Z,27.60
2018-08-16T15:57:12.149Z,27.60
2018-08-16T15:59:39.856Z,27.50
2018-08-16T16:02:07.909Z,27.50
2018-08-16T16:04:35.587Z,27.50
2018-08-16T16:07:03.356Z,27.40
2018-08-16T16:09:31.040Z,27.40
2018-08-16T16:11:58.726Z,27.40
2018-08-16T16:14:26.431Z,27.40
2018-08-16T16:16:54.217Z,27.40
2018-08-16T16:19:21.893Z,27.40
2018-08-16T16:21:49.607Z,27.40
2018-08-16T16:24:17.337Z,27.30
2018-08-16T16:26:45.088Z,27.30
2018-08-16T16:29:12.788Z,27.30
2018-08-16T16:31:40.609Z,27.30
2018-08-16T16:34:08.704Z,27.20
2018-08-16T16:36:36.402Z,27.20
2018-08-16T16:39:08.096Z,27.10
2018-08-16T16:41:35.781Z,27.00
2018-08-16T16:44:03.484Z,26.90
2018-08-16T16:46:31.210Z,26.90
2018-08-16T16:48:58.941Z,26.80
2018-08-16T16:51:26.607Z,26.70
2018-08-16T16:53:54.304Z,26.70
2018-08-16T16:56:22.078Z,26.70
2018-08-16T16:58:49.901Z,26.70
2018-08-16T17:01:17.643Z,26.70
2018-08-16T17:03:45.354Z,26.60
2018-08-16T17:06:13.106Z,26.60
2018-08-16T17:08:41.013Z,26.50
2018-08-16T17:11:08.817Z,26.50
2018-08-16T17:13:36.671Z,26.50
2018-08-16T17:16:04.495Z,26.50
2018-08-16T17:18:32.204Z,26.40
2018-08-16T17:20:59.888Z,26.30
2018-08-16T17:23:27.599Z,26.30
2018-08-16T17:25:55.334Z,26.20
2018-08-16T17:28:23.086Z,26.10
2018-08-16T17:30:50.748Z,26.00
2018-08-16T17:33:18.463Z,25.90
2018-08-16T17:35:46.146Z,25.90
2018-08-16T17:38:13.832Z,25.70
2018-08-16T17:40:41.546Z,25.70
2018-08-16T17:43:09.298Z,25.60
2018-08-16T17:45:36.996Z,25.50
2018-08-16T17:48:04.680Z,25.40
2018-08-16T17:50:32.570Z,25.40
2018-08-16T17:53:00.291Z,25.30
2018-08-16T17:55:28.007Z,25.30
2018-08-16T17:57:55.826Z,25.30
2018-08-16T18:00:23.752Z,25.30
2018-08-16T18:02:51.491Z,25.20
2018-08-16T18:05:19.218Z,25.10
2018-08-16T18:07:47.015Z,25.00
2018-08-16T18:10:15.099Z,24.90
2018-08-16T18:12:42.792Z,24.80
2018-08-16T18:15:12.208Z,24.70
2018-08-16T18:17:41.354Z,24.60
2018-08-16T18:20:09.295Z,24.40
2018-08-16T18:22:37.477Z,24.30
2018-08-16T18:25:06.122Z,24.20
2018-08-16T18:27:34.347Z,24.20
2018-08-16T18:30:02.602Z,24.10
2018-08-16T18:32:33.080Z,24.00
2018-08-16T18:35:03.465Z,23.90
2018-08-16T18:37:35.820Z,23.90
2018-08-16T18:40:04.566Z,23.80
2018-08-16T18:42:32.872Z,23.70
2018-08-16T18:45:01.237Z,23.70
2018-08-16T18:47:29.652Z,23.60
2018-08-16T18:49:58.006Z,23.50
2018-08-16T18:52:26.312Z,23.50
2018-08-16T18:54:54.535Z,23.40
2018-08-16T18:57:31.409Z,23.40
2018-08-16T19:00:00.022Z,23.30
2018-08-16T19:02:28.353Z,23.20
2018-08-16T19:04:56.703Z,23.10
2018-08-16T19:07:26.742Z,23.00
2018-08-16T19:09:54.737Z,22.90
2018-08-16T19:12:22.905Z,22.90
2018-08-16T19:14:51.678Z,22.80
2018-08-16T19:17:19.811Z,22.70
2018-08-16T19:19:48.251Z,22.70
2018-08-16T19:22:24.097Z,22.70
2018-08-16T19:24:56.988Z,22.60
2018-08-16T19:27:25.035Z,22.50
2018-08-16T19:29:53.312Z,22.50
2018-08-16T19:32:21.515Z,22.50
2018-08-16T19:34:49.648Z,22.40
2018-08-16T19:37:18.005Z,22.40
2018-08-16T19:39:46.320Z,22.30
2018-08-16T19:42:14.619Z,22.30
2018-08-16T19:44:42.690Z,22.20
2018-08-16T19:47:11.912Z,22.20
2018-08-16T19:49:39.951Z,22.10
2018-08-16T19:52:08.068Z,22.10
2018-08-16T19:54:36.112Z,22.00
2018-08-16T19:57:04.144Z,22.00
2018-08-16T19:59:32.356Z,22.00
2018-08-16T20:02:00.645Z,22.00
2018-08-16T20:04:28.780Z,21.90
2018-08-16T20:06:57.010Z,21.90
2018-08-16T20:09:24.986Z,21.80
2018-08-16T20:11:53.053Z,21.80
2018-08-16T20:14:21.093Z,21.70
2018-08-16T20:16:49.163Z,21.60
2018-08-16T20:19:17.260Z,21.50
2018-08-16T20:21:47.222Z,21.50
2018-08-16T20:24:15.427Z,21.50
2018-08-16T20:26:44.016Z,21.40
2018-08-16T20:29:12.167Z,21.30
2018-08-16T20:31:41.517Z,21.30
2018-08-16T20:34:11.238Z,21.20
2018-08-16T20:36:39.371Z,21.20
2018-08-16T20:39:08.353Z,21.10
2018-08-16T20:41:36.471Z,21.10
2018-08-16T20:44:04.842Z,21.10
2018-08-16T20:46:33.022Z,21.00
2018-08-16T20:49:01.211Z,21.00
2018-08-16T20:51:30.645Z,21.00
2018-08-16T20:53:58.847Z,21.00
2018-08-16T20:56:26.996Z,20.90
2018-08-16T20:58:55.081Z,20.90
2018-08-16T21:01:23.063Z,20.80
2018-08-16T21:03:52.545Z,20.80
2018-08-16T21:06:20.925Z,20.80
2018-08-16T21:08:49.056Z,20.70
2018-08-16T21:11:17.214Z,20.70
2018-08-16T21:13:45.303Z,20.60
2018-08-16T21:16:13.382Z,20.60
2018-08-16T21:18:41.390Z,20.50
2018-08-16T21:21:09.458Z,20.50
2018-08-16T21:23:37.600Z,20.50
2018-08-16T21:26:05.748Z,20.50
2018-08-16T21:28:33.789Z,20.50
2018-08-16T21:31:01.858Z,20.50
2018-08-16T21:33:29.880Z,20.40
2018-08-16T21:35:58.026Z,20.40
2018-08-16T21:38:26.049Z,20.30
2018-08-16T21:40:54.018Z,20.30
2018-08-16T21:43:22.142Z,20.20
2018-08-16T21:45:52.259Z,20.20
2018-08-16T21:48:20.341Z,20.20
2018-08-16T21:50:48.372Z,20.20
2018-08-16T21:53:16.428Z,20.20
2018-08-16T21:55:44.521Z,20.20
2018-08-16T21:58:12.814Z,20.20
2018-08-16T22:00:49.938Z,20.20
2018-08-16T22:03:19.866Z,20.10
2018-08-16T22:06:02.135Z,20.10
2018-08-16T22:08:47.319Z,20.10
2018-08-16T22:11:15.374Z,20.00
2018-08-16T22:13:43.602Z,20.00
2018-08-16T22:16:11.618Z,20.00
2018-08-16T22:18:40.800Z,19.90
2018-08-16T22:21:11.130Z,19.90
2018-08-16T22:23:39.302Z,19.70
2018-08-16T22:26:07.539Z,19.70
2018-08-16T22:28:35.649Z,19.60
2018-08-16T22:31:03.770Z,19.60
2018-08-16T22:33:31.856Z,19.60
2018-08-16T22:35:59.920Z,19.60
2018-08-16T22:38:27.850Z,19.50
2018-08-16T22:40:55.871Z,19.50
2018-08-16T22:43:23.819Z,19.50
2018-08-16T22:45:51.890Z,19.50
2018-08-16T22:48:19.966Z,19.50
2018-08-16T22:50:47.948Z,19.50
2018-08-16T22:53:15.917Z,19.50
2018-08-16T22:55:44.001Z,19.50
2018-08-16T22:58:12.106Z,19.50
2018-08-16T23:00:40.078Z,19.60
2018-08-16T23:03:08.092Z,19.60
2018-08-16T23:05:36.143Z,19.60
2018-08-16T23:08:04.326Z,19.70
2018-08-16T23:10:32.278Z,19.80
2018-08-16T23:13:00.443Z,19.90
2018-08-16T23:15:28.462Z,19.80
2018-08-16T23:17:56.464Z,19.80
2018-08-16T23:20:24.427Z,19.80
2018-08-16T23:22:54.559Z,19.80
2018-08-16T23:25:22.525Z,19.80
2018-08-16T23:27:50.476Z,19.80
2018-08-16T23:30:18.529Z,19.80
2018-08-16T23:32:47.667Z,19.80
2018-08-16T23:35:15.645Z,19.80
2018-08-16T23:37:43.627Z,19.80
2018-08-16T23:40:12.905Z,19.80
2018-08-16T23:42:41.132Z,19.80
2018-08-16T23:45:09.887Z,19.80
2018-08-16T23:47:37.959Z,19.70
2018-08-16T23:50:08.294Z,19.70
2018-08-16T23:52:36.307Z,19.60
2018-08-16T23:55:05.222Z,19.60
2018-08-16T23:57:33.166Z,19.60
